Time;durP1;ratioP1;P1;durP2;ratioP2;P2;SDS_P1;SDS_P2;PMS_P1;PMS_P2;Temp;Humidity;BMP_temperature;BMP_pressure;BME280_temperature;BME280_humidity;BME280_pressure;Samples;Min_cycle;Max_cycle;Signal;HPM_P1;HPM_P2
2022/09/04 00:00:18;;;;;;;16.77;8.25;;;;;;;21.10;66.65;101223.28;5018671;28;20049;-53
2022/09/04 00:02:55;;;;;;;14.95;8.30;;;;;;;21.05;67.25;101224.25;5035999;28;20134;-51
2022/09/04 00:05:42;;;;;;;16.05;8.30;;;;;;;21.01;67.17;101228.81;5046095;28;20096;-51
2022/09/04 00:08:44;;;;;;;15.65;8.85;;;;;;;20.87;67.99;101219.06;5021571;28;20033;-49
2022/09/04 00:11:43;;;;;;;15.60;8.38;;;;;;;20.79;68.14;101221.53;5036399;28;20132;-47
2022/09/04 00:14:13;;;;;;;15.35;8.98;;;;;;;20.77;68.56;101232.13;5049696;28;20049;-53
2022/09/04 00:17:02;;;;;;;21.70;9.90;;;;;;;20.75;68.88;101237.16;5025087;28;20136;-49
2022/09/04 00:19:58;;;;;;;18.85;10.15;;;;;;;20.67;69.17;101234.41;5019672;28;20432;-46
2022/09/04 00:22:33;;;;;;;15.02;8.25;;;;;;;20.63;69.34;101242.56;5026695;28;20041;-50
2022/09/04 00:25:22;;;;;;;18.52;9.48;;;;;;;20.65;69.16;101237.50;5035157;28;20076;-49
2022/09/04 00:27:55;;;;;;;22.17;10.07;;;;;;;20.68;69.26;101239.63;5014561;28;20444;-48
2022/09/04 00:30:23;;;;;;;18.73;10.25;;;;;;;20.69;69.56;101244.03;5001798;28;20520;-48
2022/09/04 00:33:00;;;;;;;20.58;10.35;;;;;;;20.66;69.68;101235.53;5018257;28;20048;-46
2022/09/04 00:35:31;;;;;;;22.67;10.98;;;;;;;20.58;70.05;101245.47;5035081;28;20504;-50
2022/09/04 00:38:08;;;;;;;15.68;9.60;;;;;;;20.48;70.62;101245.78;5004085;28;20041;-52
2022/09/04 00:40:46;;;;;;;20.13;10.30;;;;;;;20.39;70.99;101241.03;5018005;28;20439;-48
2022/09/04 00:43:22;;;;;;;20.40;10.50;;;;;;;20.34;71.42;101245.94;5005402;28;20042;-49
2022/09/04 00:46:16;;;;;;;17.95;9.90;;;;;;;20.38;71.18;101246.91;5035272;28;20045;-49
2022/09/04 00:48:43;;;;;;;16.60;9.70;;;;;;;20.44;71.12;101251.13;5020447;28;20049;-46
2022/09/04 00:51:48;;;;;;;22.58;10.40;;;;;;;20.35;71.61;101251.16;5035055;28;20041;-51
2022/09/04 00:54:22;;;;;;;16.73;9.30;;;;;;;20.23;72.16;101242.66;5008016;28;20039;-50
2022/09/04 00:57:09;;;;;;;16.90;9.23;;;;;;;20.16;72.72;101245.91;5016681;28;20037;-50
2022/09/04 01:00:14;;;;;;;18.83;8.50;;;;;;;20.15;72.51;101252.56;5018103;28;20053;-49
2022/09/04 01:03:11;;;;;;;16.85;9.35;;;;;;;20.23;72.29;101256.50;5006821;28;20060;-49
2022/09/04 01:06:09;;;;;;;14.10;7.43;;;;;;;20.32;71.34;101257.31;5000596;28;20499;-50
2022/09/04 01:08:46;;;;;;;16.35;8.38;;;;;;;20.33;71.64;101261.72;5034604;28;20049;-49
2022/09/04 01:11:26;;;;;;;13.68;7.88;;;;;;;20.25;72.29;101265.28;5017370;28;20526;-49
2022/09/04 01:14:25;;;;;;;16.40;8.88;;;;;;;20.19;72.41;101272.13;5034189;28;20049;-48
2022/09/04 01:17:13;;;;;;;16.95;8.95;;;;;;;20.20;72.58;101273.72;5034472;28;20049;-48
2022/09/04 01:20:00;;;;;;;14.00;8.52;;;;;;;20.17;72.79;101272.44;5034310;28;20408;-49
2022/09/04 01:22:46;;;;;;;15.88;8.23;;;;;;;20.08;73.17;101282.66;5033901;28;20038;-47
2022/09/04 01:25:32;;;;;;;20.38;8.93;;;;;;;20.03;73.35;101280.03;5034337;28;20459;-50
2022/09/04 01:28:55;;;;;;;16.25;9.27;;;;;;;19.96;73.80;101279.69;5022166;28;20412;-49
2022/09/04 01:31:35;;;;;;;14.13;7.82;;;;;;;19.88;73.88;101281.28;4989849;28;20048;-49
2022/09/04 01:34:33;;;;;;;14.30;7.78;;;;;;;19.90;74.14;101283.75;5033942;28;20040;-49
2022/09/04 01:37:10;;;;;;;15.25;8.57;;;;;;;19.89;74.46;101280.19;5034137;28;20057;-50
2022/09/04 01:39:39;;;;;;;14.32;8.55;;;;;;;19.88;74.72;101288.78;5034223;28;20079;-47
2022/09/04 01:42:28;;;;;;;15.07;8.80;;;;;;;19.92;74.50;101285.06;5016503;28;20042;-49
2022/09/04 01:44:56;;;;;;;11.60;7.93;;;;;;;19.91;74.49;101288.94;5009886;28;20436;-48
2022/09/04 01:47:33;;;;;;;15.73;8.90;;;;;;;19.92;74.50;101296.13;4999958;28;20046;-48
2022/09/04 01:50:18;;;;;;;14.15;8.65;;;;;;;19.90;74.54;101301.16;5033923;28;20416;-49
2022/09/04 01:53:15;;;;;;;14.18;8.00;;;;;;;19.86;74.71;101297.38;5016135;28;20052;-48
2022/09/04 01:56:09;;;;;;;19.02;8.60;;;;;;;19.81;75.23;101300.28;5021044;28;20092;-49
2022/09/04 01:59:00;;;;;;;13.95;8.55;;;;;;;19.81;75.33;101291.19;4987968;28;20049;-49
2022/09/04 02:01:42;;;;;;;18.00;8.50;;;;;;;19.80;75.37;101298.69;5014599;28;20042;-51
2022/09/04 02:04:30;;;;;;;13.52;8.45;;;;;;;19.82;75.41;101301.94;5013612;28;20045;-49
2022/09/04 02:07:03;;;;;;;14.15;8.50;;;;;;;19.79;75.66;101297.88;5013273;28;20067;-48
2022/09/04 02:09:34;;;;;;;14.13;8.45;;;;;;;19.78;75.87;101307.28;5001234;28;20049;-48
2022/09/04 02:12:24;;;;;;;13.38;8.27;;;;;;;19.80;75.97;101312.50;5013906;28;20038;-48
2022/09/04 02:15:02;;;;;;;18.63;8.95;;;;;;;19.77;75.87;101311.19;4988055;28;20488;-48
2022/09/04 02:17:54;;;;;;;17.60;9.50;;;;;;;19.77;76.10;101315.88;5013505;28;20057;-51
2022/09/04 02:20:27;;;;;;;17.17;9.30;;;;;;;19.79;76.22;101321.91;4996142;28;20570;-51
2022/09/04 02:23:03;;;;;;;12.43;7.95;;;;;;;19.81;76.07;101325.19;4995795;28;20038;-51
2022/09/04 02:25:47;;;;;;;17.13;9.30;;;;;;;19.84;76.14;101330.06;5013797;28;20092;-52
2022/09/04 02:28:22;;;;;;;13.82;9.20;;;;;;;19.84;76.05;101327.31;4983146;28;20448;-50
2022/09/04 02:31:14;;;;;;;18.90;10.18;;;;;;;19.79;76.39;101330.22;5012874;28;20458;-48
2022/09/04 02:34:00;;;;;;;16.90;8.90;;;;;;;19.78;76.62;101334.13;4996015;28;20034;-50
2022/09/04 02:37:05;;;;;;;16.42;9.20;;;;;;;19.81;76.53;101339.00;4995799;28;20042;-49
2022/09/04 02:39:44;;;;;;;17.45;10.07;;;;;;;19.82;76.66;101340.66;5012988;28;20057;-51
2022/09/04 02:42:45;;;;;;;16.70;9.30;;;;;;;19.82;76.79;101340.66;4979703;28;20205;-49
2022/09/04 02:45:26;;;;;;;15.10;9.00;;;;;;;19.80;76.69;101342.94;4979579;28;20038;-50
2022/09/04 02:48:21;;;;;;;14.23;9.60;;;;;;;19.76;76.91;101339.16;4995727;28;20417;-49
2022/09/04 02:51:20;;;;;;;14.10;8.40;;;;;;;19.73;76.97;101339.78;4995845;28;20042;-48
2022/09/04 02:54:08;;;;;;;16.05;9.43;;;;;;;19.70;77.13;101343.19;4994631;28;20050;-51
2022/09/04 02:57:06;;;;;;;18.05;10.23;;;;;;;19.64;77.37;101344.44;4979800;28;20042;-47
2022/09/04 02:59:46;;;;;;;16.60;9.48;;;;;;;19.50;78.10;101341.75;4979835;28;20057;-50
2022/09/04 03:02:24;;;;;;;16.48;9.80;;;;;;;19.47;78.89;101351.47;5017852;28;20509;-50
2022/09/04 03:05:07;;;;;;;18.83;10.10;;;;;;;19.49;78.77;101349.22;5026450;28;20119;-51
2022/09/04 03:07:38;;;;;;;17.40;10.07;;;;;;;19.51;78.71;101352.50;4990733;28;20041;-49
2022/09/04 03:10:16;;;;;;;17.00;10.45;;;;;;;19.48;79.00;101353.13;5001386;28;20042;-49
2022/09/04 03:13:05;;;;;;;19.27;10.73;;;;;;;19.48;78.93;101358.66;5013101;28;20076;-48
2022/09/04 03:16:10;;;;;;;21.88;11.07;;;;;;;19.47;79.11;101365.28;5027120;28;20038;-50
2022/09/04 03:19:09;;;;;;;17.48;9.88;;;;;;;19.47;79.04;101356.19;4975179;28;20397;-51
2022/09/04 03:22:14;;;;;;;16.58;9.52;;;;;;;19.48;78.93;101364.19;5028243;28;20496;-49
2022/09/04 03:25:16;;;;;;;16.02;10.23;;;;;;;19.48;79.20;101364.19;5014192;28;20042;-50
2022/09/04 03:27:44;;;;;;;14.30;9.52;;;;;;;19.48;79.09;101358.66;5008332;28;20087;-48
2022/09/04 03:30:12;;;;;;;16.20;9.43;;;;;;;19.49;79.06;101357.50;5032855;28;20042;-51
2022/09/04 03:33:03;;;;;;;15.55;9.65;;;;;;;19.47;79.01;101362.53;5010791;28;20041;-50
2022/09/04 03:35:34;;;;;;;16.80;9.10;;;;;;;19.41;79.25;101362.97;5030546;28;20492;-53
2022/09/04 03:38:16;;;;;;;14.77;9.70;;;;;;;19.32;79.86;101362.94;5032458;28;20456;-50
2022/09/04 03:40:56;;;;;;;20.75;10.05;;;;;;;19.29;80.28;101366.28;5014912;28;20045;-50
2022/09/04 03:43:56;;;;;;;18.60;9.57;;;;;;;19.32;80.34;101365.69;5020768;28;20045;-48
2022/09/04 03:46:40;;;;;;;16.80;10.38;;;;;;;19.37;80.04;101368.31;5007540;28;20042;-49
2022/09/04 03:49:20;;;;;;;15.68;9.90;;;;;;;19.39;80.05;101371.59;5032290;28;20500;-47
2022/09/04 03:52:26;;;;;;;15.25;10.25;;;;;;;19.40;80.06;101370.44;5033018;28;20037;-49
2022/09/04 03:55:49;;;;;;;13.82;9.32;;;;;;;19.37;80.50;101374.66;5030390;28;20042;-49
2022/09/04 03:58:40;;;;;;;17.63;10.20;;;;;;;19.34;80.57;101377.25;4894843;29;20048;-49
2022/09/04 04:01:32;;;;;;;13.80;9.93;;;;;;;19.30;80.90;101387.28;5001715;28;20053;-47
2022/09/04 04:04:14;;;;;;;13.68;8.82;;;;;;;19.28;81.46;101381.25;5003241;28;20057;-49
2022/09/04 04:06:52;;;;;;;14.35;9.60;;;;;;;19.26;81.34;101380.75;5015164;28;20087;-48
2022/09/04 04:09:23;;;;;;;13.63;9.85;;;;;;;19.25;81.33;101384.66;4986750;28;20394;-49
2022/09/04 04:12:26;;;;;;;13.52;9.65;;;;;;;19.23;81.38;101384.13;5016058;28;20038;-46
2022/09/04 04:15:00;;;;;;;13.13;9.50;;;;;;;19.14;81.62;101384.88;4970073;28;20443;-47
2022/09/04 04:18:12;;;;;;;14.07;8.52;;;;;;;19.03;81.98;101391.78;4999748;28;20049;-49
2022/09/04 04:20:49;;;;;;;14.18;9.23;;;;;;;18.93;82.83;101392.84;5031290;28;20030;-51
2022/09/04 04:23:46;;;;;;;18.58;10.45;;;;;;;18.92;82.84;101399.47;5006958;28;20137;-49
2022/09/04 04:26:39;;;;;;;14.13;8.52;;;;;;;18.88;83.13;101400.38;5013948;28;20110;-50
2022/09/04 04:29:16;;;;;;;15.35;8.73;;;;;;;18.86;83.50;101403.47;5006854;28;20049;-53
2022/09/04 04:32:12;;;;;;;15.10;9.15;;;;;;;18.88;83.80;101405.91;5032253;28;20068;-50
2022/09/04 04:34:49;;;;;;;14.43;9.52;;;;;;;18.94;83.87;101412.97;5002672;28;20049;-49
2022/09/04 04:37:30;;;;;;;18.55;9.73;;;;;;;19.00;83.53;101408.13;5015749;28;20041;-49
2022/09/04 04:40:02;;;;;;;17.27;10.10;;;;;;;18.99;83.61;101412.03;5015941;28;20038;-48
2022/09/04 04:42:49;;;;;;;14.80;9.57;;;;;;;18.99;83.44;101415.63;4998220;28;20527;-49
2022/09/04 04:45:52;;;;;;;14.63;8.73;;;;;;;19.03;83.43;101413.88;4998198;28;20042;-49
2022/09/04 04:48:31;;;;;;;15.55;8.82;;;;;;;19.04;83.30;101415.50;4959607;28;20465;-51
2022/09/04 04:51:21;;;;;;;15.32;8.82;;;;;;;19.05;82.70;101416.31;5009958;28;20045;-52
2022/09/04 04:54:14;;;;;;;13.98;7.85;;;;;;;18.99;82.95;101421.13;5001957;28;20037;-51
2022/09/04 04:57:03;;;;;;;12.55;8.70;;;;;;;18.91;83.56;101424.66;5014692;28;20045;-48
2022/09/04 05:00:05;;;;;;;16.42;8.85;;;;;;;18.91;83.31;101419.94;4997873;28;20099;-48
2022/09/04 05:03:00;;;;;;;15.80;8.85;;;;;;;18.94;83.66;101424.00;5007641;28;20053;-50
2022/09/04 05:05:58;;;;;;;15.20;8.90;;;;;;;18.97;83.30;101425.34;4997679;28;20041;-54
2022/09/04 05:09:00;;;;;;;13.77;9.02;;;;;;;18.97;83.60;101439.97;5030915;28;20046;-50
2022/09/04 05:11:40;;;;;;;16.25;8.30;;;;;;;18.99;83.56;101436.91;5017109;28;20045;-49
2022/09/04 05:14:35;;;;;;;18.02;9.90;;;;;;;18.97;83.68;101447.44;5034133;28;20052;-50
2022/09/04 05:17:22;;;;;;;11.70;8.57;;;;;;;18.93;84.00;101452.78;5034346;28;20063;-49
2022/09/04 05:20:17;;;;;;;21.85;9.60;;;;;;;18.89;84.24;101449.78;5017193;28;20041;-55
2022/09/04 05:23:05;;;;;;;14.55;9.05;;;;;;;18.93;84.24;101456.34;5021027;28;20538;-49
2022/09/04 05:25:52;;;;;;;13.25;8.32;;;;;;;18.98;83.94;101465.63;5000000;28;20432;-49
2022/09/04 05:28:38;;;;;;;14.93;8.52;;;;;;;18.97;83.90;101464.81;5034277;28;20049;-50
2022/09/04 05:31:19;;;;;;;12.90;9.25;;;;;;;18.90;83.92;101469.94;5033741;28;20499;-52
2022/09/04 05:33:54;;;;;;;10.80;7.38;;;;;;;18.85;84.35;101465.34;5016558;28;20049;-50
2022/09/04 05:36:36;;;;;;;11.40;8.38;;;;;;;18.84;84.55;101472.00;5016632;28;20499;-50
2022/09/04 05:39:29;;;;;;;14.02;8.13;;;;;;;18.85;84.40;101467.28;5033879;28;20045;-49
2022/09/04 05:42:18;;;;;;;10.75;7.18;;;;;;;18.86;84.68;101482.75;5016196;28;20050;-49
2022/09/04 05:44:57;;;;;;;16.55;8.55;;;;;;;18.87;84.85;101487.13;5033690;28;20045;-48
2022/09/04 05:47:43;;;;;;;15.35;9.00;;;;;;;18.89;84.69;101493.16;5015639;28;20056;-51
2022/09/04 05:50:26;;;;;;;13.75;8.68;;;;;;;18.93;84.71;101494.19;5021973;28;20049;-49
2022/09/04 05:53:18;;;;;;;14.13;8.52;;;;;;;18.96;84.33;101493.56;5033399;28;20116;-49
2022/09/04 05:56:06;;;;;;;13.38;8.68;;;;;;;19.00;84.40;101502.03;5021979;28;20041;-49
2022/09/04 05:58:43;;;;;;;14.13;9.05;;;;;;;19.00;84.47;101502.88;4983962;28;20061;-49
2022/09/04 06:01:35;;;;;;;13.43;8.05;;;;;;;19.03;83.96;101501.44;5033423;28;20041;-46
2022/09/04 06:04:20;;;;;;;14.40;8.38;;;;;;;19.04;84.20;101501.13;5012500;28;20524;-52
2022/09/04 06:07:09;;;;;;;15.30;9.23;;;;;;;19.04;84.61;101509.41;5032720;28;20049;-49
2022/09/04 06:10:07;;;;;;;14.50;9.00;;;;;;;19.05;84.56;101513.81;5015350;28;20496;-50
2022/09/04 06:13:27;;;;;;;12.80;7.75;;;;;;;19.07;84.68;101514.34;5002338;28;20045;-51
2022/09/04 06:16:14;;;;;;;13.80;8.40;;;;;;;19.06;85.01;101511.88;4952494;28;20047;-50
2022/09/04 06:19:28;;;;;;;16.48;9.55;;;;;;;19.04;85.43;101509.41;4952868;29;20077;-51
2022/09/04 06:22:14;;;;;;;14.27;9.07;;;;;;;19.06;85.67;101520.97;5033911;28;20061;-50
2022/09/04 06:24:53;;;;;;;13.68;8.45;;;;;;;19.07;85.22;101519.84;5021949;28;20041;-50
2022/09/04 06:27:45;;;;;;;11.15;7.55;;;;;;;19.10;84.80;101519.22;5032533;28;20053;-50
2022/09/04 06:30:16;;;;;;;12.65;8.95;;;;;;;19.09;85.38;101514.00;5033056;28;20041;-48
2022/09/04 06:33:02;;;;;;;14.68;8.40;;;;;;;19.08;85.71;101529.78;5032629;28;20455;-51
2022/09/04 06:35:45;;;;;;;15.73;9.23;;;;;;;19.10;85.80;101526.72;5032830;28;20104;-50
2022/09/04 06:38:42;;;;;;;11.73;7.40;;;;;;;19.12;84.99;101530.81;5031442;28;20052;-51
2022/09/04 06:41:28;;;;;;;14.25;8.88;;;;;;;19.14;86.12;101530.47;5005408;28;20041;-47
2022/09/04 06:44:21;;;;;;;13.52;9.02;;;;;;;19.16;85.42;101534.56;5032845;28;20416;-49
2022/09/04 06:46:54;;;;;;;14.48;9.13;;;;;;;19.17;85.99;101535.41;5021341;28;20042;-51
2022/09/04 06:49:44;;;;;;;14.38;8.82;;;;;;;19.19;86.12;101538.66;5032925;28;20045;-50
2022/09/04 06:52:37;;;;;;;14.30;7.75;;;;;;;19.26;84.41;101541.00;5032687;28;20053;-52
2022/09/04 06:55:25;;;;;;;11.55;8.10;;;;;;;19.23;85.72;101541.63;5032928;28;20043;-50
2022/09/04 06:58:19;;;;;;;13.05;9.20;;;;;;;19.26;85.54;101549.28;5015096;28;20049;-49
2022/09/04 07:01:12;;;;;;;12.25;7.80;;;;;;;19.27;85.86;101546.22;5003369;28;20045;-48
2022/09/04 07:03:49;;;;;;;13.93;9.48;;;;;;;19.29;86.21;101543.97;5015196;28;20045;-48
2022/09/04 07:06:44;;;;;;;26.85;10.73;;;;;;;19.31;84.83;101538.13;5015428;28;20045;-50
2022/09/04 07:09:27;;;;;;;16.88;9.02;;;;;;;19.34;84.89;101543.06;5026841;28;20488;-50
2022/09/04 07:12:00;;;;;;;12.57;8.82;;;;;;;19.36;86.22;101540.78;5032793;28;20111;-52
2022/09/04 07:14:40;;;;;;;13.73;8.00;;;;;;;19.38;86.08;101546.81;5033079;28;20046;-54
2022/09/04 07:17:17;;;;;;;23.15;8.75;;;;;;;19.41;85.56;101546.22;5032955;28;20579;-51
2022/09/04 07:19:56;;;;;;;14.40;7.57;;;;;;;19.48;85.09;101551.28;5014731;28;20041;-52
2022/09/04 07:22:45;;;;;;;15.27;7.85;;;;;;;19.51;84.71;101551.50;5032321;28;20507;-49
2022/09/04 07:25:48;;;;;;;12.20;8.55;;;;;;;19.56;84.78;101559.69;5032491;28;20045;-52
2022/09/04 07:28:34;;;;;;;12.10;8.18;;;;;;;19.58;84.50;101562.13;5017820;28;20045;-54
2022/09/04 07:31:23;;;;;;;10.52;7.55;;;;;;;19.61;84.86;101564.28;5035618;28;20037;-54
2022/09/04 07:33:58;;;;;;;14.07;8.05;;;;;;;19.64;85.93;101571.94;5019479;28;20045;-53
2022/09/04 07:36:53;;;;;;;12.30;7.60;;;;;;;19.67;84.57;101560.25;5001937;28;20519;-52
2022/09/04 07:39:28;;;;;;;11.32;7.68;;;;;;;19.71;84.89;101571.56;5018949;28;20053;-52
2022/09/04 07:42:11;;;;;;;14.10;9.23;;;;;;;19.72;85.88;101562.13;5036143;28;20046;-53
2022/09/04 07:44:47;;;;;;;11.45;8.10;;;;;;;19.75;85.52;101572.56;5034656;28;20045;-48
2022/09/04 07:47:35;;;;;;;10.32;7.65;;;;;;;19.78;85.58;101563.66;5017966;28;20061;-47
2022/09/04 07:50:19;;;;;;;16.65;9.52;;;;;;;19.79;85.96;101570.78;5016574;28;20041;-50
2022/09/04 07:53:23;;;;;;;14.25;9.45;;;;;;;19.81;86.78;101563.00;5018698;28;20041;-48
2022/09/04 07:55:55;;;;;;;12.13;9.73;;;;;;;19.84;87.26;101575.38;5018269;28;20056;-49
2022/09/04 07:58:39;;;;;;;15.27;8.85;;;;;;;19.87;86.50;101569.25;5001518;28;20053;-50
2022/09/04 08:01:18;;;;;;;12.85;9.38;;;;;;;19.92;86.91;101578.25;5035708;28;20048;-52
2022/09/04 08:03:54;;;;;;;13.32;9.68;;;;;;;19.97;87.55;101580.06;5035939;28;20492;-54
2022/09/04 08:06:28;;;;;;;12.00;9.25;;;;;;;19.98;87.75;101585.28;5018025;28;20041;-49
2022/09/04 08:09:08;;;;;;;11.15;7.68;;;;;;;20.03;86.33;101586.28;5035367;28;20099;-50
2022/09/04 08:11:48;;;;;;;10.95;6.78;;;;;;;20.08;85.53;101591.69;5017496;28;20404;-49
2022/09/04 08:14:36;;;;;;;10.02;7.35;;;;;;;20.13;84.57;101594.34;5017196;28;20053;-51
2022/09/04 08:17:42;;;;;;;13.10;8.57;;;;;;;20.19;84.45;101599.44;5031237;28;20503;-52
2022/09/04 08:20:34;;;;;;;11.98;8.70;;;;;;;20.25;85.50;101594.59;5035001;28;20122;-49
2022/09/04 08:23:23;;;;;;;10.85;7.53;;;;;;;20.27;84.74;101605.34;5038091;28;20045;-49
2022/09/04 08:26:00;;;;;;;13.40;9.02;;;;;;;20.32;85.86;101603.25;5035425;28;20564;-50
2022/09/04 08:28:55;;;;;;;16.05;11.20;;;;;;;20.36;86.93;101601.50;5017346;28;20496;-51
2022/09/04 08:31:31;;;;;;;13.90;10.25;;;;;;;20.39;87.11;101600.88;5011461;28;20037;-52
2022/09/04 08:34:06;;;;;;;13.67;9.10;;;;;;;20.41;86.53;101604.16;5019255;28;20056;-53
2022/09/04 08:36:49;;;;;;;10.90;7.77;;;;;;;20.47;86.13;101609.53;5028345;28;20288;-50
2022/09/04 08:39:47;;;;;;;9.27;6.18;;;;;;;20.53;84.20;101608.28;5023155;28;20315;-52
2022/09/04 08:42:49;;;;;;;16.42;9.98;;;;;;;20.59;85.54;101609.84;5036702;28;20124;-48
2022/09/04 08:45:46;;;;;;;12.70;8.48;;;;;;;20.61;85.43;101613.09;5009776;28;20041;-53
2022/09/04 08:48:17;;;;;;;12.70;9.40;;;;;;;20.70;85.39;101613.97;5012010;28;20033;-49
2022/09/04 08:51:07;;;;;;;11.35;7.65;;;;;;;20.77;84.34;101610.75;5026403;28;20113;-50
2022/09/04 08:53:37;;;;;;;12.63;8.02;;;;;;;20.78;83.85;101615.97;5016888;28;20045;-50
2022/09/04 08:56:20;;;;;;;13.02;8.40;;;;;;;20.81;83.27;101618.09;4334810;28;10000324;-52
2022/09/04 08:59:09;;;;;;;11.52;6.65;;;;;;;20.85;82.30;101621.88;4997273;28;20526;-53
2022/09/04 09:02:06;;;;;;;11.55;6.80;;;;;;;20.91;82.20;101621.75;5030380;28;20076;-48
2022/09/04 09:04:35;;;;;;;12.93;7.25;;;;;;;20.95;81.94;101617.16;5030493;28;20050;-50
2022/09/04 09:07:23;;;;;;;8.85;5.82;;;;;;;20.97;81.27;101612.13;5029711;28;20048;-47
2022/09/04 09:10:13;;;;;;;8.50;5.45;;;;;;;21.00;79.41;101609.56;5030613;28;20050;-54
2022/09/04 09:13:06;;;;;;;9.98;5.70;;;;;;;21.04;78.94;101613.31;5018814;28;20512;-54
2022/09/04 09:15:40;;;;;;;9.85;5.68;;;;;;;21.10;78.98;101611.22;5030577;28;20049;-52
2022/09/04 09:18:26;;;;;;;7.88;5.43;;;;;;;21.16;78.82;101609.09;5030959;28;20053;-55
2022/09/04 09:21:00;;;;;;;11.05;6.50;;;;;;;21.21;79.56;101611.72;5031122;28;20060;-52
2022/09/04 09:23:56;;;;;;;16.42;8.02;;;;;;;21.24;79.34;101611.13;5031409;28;20057;-51
2022/09/04 09:26:28;;;;;;;16.25;7.97;;;;;;;21.30;80.14;101617.31;5011057;28;20064;-51
2022/09/04 09:29:26;;;;;;;11.75;6.60;;;;;;;21.32;79.04;101612.28;5030697;28;20060;-49
2022/09/04 09:32:31;;;;;;;10.57;7.18;;;;;;;21.39;79.55;101612.63;5013951;28;20527;-51
2022/09/04 09:35:08;;;;;;;9.90;6.45;;;;;;;21.43;78.96;101616.38;5021159;28;20566;-53
2022/09/04 09:38:34;;;;;;;14.38;7.13;;;;;;;21.46;79.58;101616.56;5028863;28;20049;-50
2022/09/04 09:41:29;;;;;;;9.82;5.45;;;;;;;21.51;79.14;101604.53;4962955;28;20099;-48
2022/09/04 09:44:20;;;;;;;11.07;5.38;;;;;;;21.55;78.58;101608.28;5005227;28;20504;-48
2022/09/04 09:47:25;;;;;;;9.88;5.75;;;;;;;21.60;77.87;101615.59;5018286;28;20045;-49
2022/09/04 09:50:19;;;;;;;10.15;6.53;;;;;;;21.66;78.19;101617.09;5029404;28;20096;-51
2022/09/04 09:53:08;;;;;;;11.90;6.30;;;;;;;21.72;78.02;101614.97;5029429;28;20772;-47
2022/09/04 09:55:41;;;;;;;7.55;4.43;;;;;;;21.76;77.48;101615.97;5027408;28;20029;-54
2022/09/04 09:58:37;;;;;;;6.80;4.30;;;;;;;21.79;76.81;101618.94;5012331;28;20053;-50
2022/09/04 10:01:18;;;;;;;;;;;;;;;21.81;76.13;101613.03;5020524;28;20539;-50
2022/09/04 10:04:10;;;;;;;7.18;4.32;;;;;;;21.85;76.03;101612.06;5029585;28;19947;-51
2022/09/04 10:07:01;;;;;;;8.68;4.45;;;;;;;21.93;75.58;101615.97;5028735;28;20547;-53
2022/09/04 10:09:49;;;;;;;7.03;4.20;;;;;;;21.96;75.07;101609.81;4985853;28;20045;-52
2022/09/04 10:12:38;;;;;;;10.70;4.40;;;;;;;22.00;74.81;101619.09;5029522;28;20535;-52
2022/09/04 10:15:37;;;;;;;8.20;4.43;;;;;;;22.05;74.47;101616.13;5011685;28;20773;-54
2022/09/04 10:18:33;;;;;;;7.72;4.22;;;;;;;22.08;74.65;101611.91;5019422;28;20068;-48
2022/09/04 10:21:19;;;;;;;;;;;;;;;22.12;74.40;101613.69;5016203;28;20049;-54
2022/09/04 10:24:41;;;;;;;8.98;4.38;;;;;;;22.16;74.12;101616.63;5029239;28;19958;-53
2022/09/04 10:27:27;;;;;;;9.40;4.70;;;;;;;22.26;72.90;101610.78;4914278;29;20046;-50
2022/09/04 10:30:05;;;;;;;;;;;;;;;22.33;72.42;101608.31;5029748;28;20079;-50
2022/09/04 10:32:48;;;;;;;11.30;4.35;;;;;;;22.41;72.02;101608.63;5029450;28;19921;-51
2022/09/04 10:35:21;;;;;;;8.10;4.40;;;;;;;22.44;71.44;101617.13;5029450;28;20049;-52
2022/09/04 10:38:16;;;;;;;10.48;4.75;;;;;;;22.47;71.65;101612.88;5029098;28;20045;-52
2022/09/04 10:41:02;;;;;;;9.45;4.15;;;;;;;22.56;71.64;101616.44;5011396;28;20063;-52
2022/09/04 10:43:48;;;;;;;;;;;;;;;22.62;71.12;101612.34;5029093;28;20045;-54
2022/09/04 10:46:40;;;;;;;6.80;3.75;;;;;;;22.68;70.67;101618.53;5028465;28;20387;-54
2022/09/04 10:49:36;;;;;;;5.55;3.20;;;;;;;22.70;69.58;101613.47;5011420;28;20041;-56
2022/09/04 10:52:16;;;;;;;7.00;3.33;;;;;;;22.72;69.61;101611.97;5018897;28;20049;-54
2022/09/04 10:55:13;;;;;;;5.07;3.40;;;;;;;22.69;69.74;101609.06;5028252;28;20037;-49
2022/09/04 10:58:09;;;;;;;4.85;3.25;;;;;;;22.66;69.88;101613.31;5019546;28;20504;-53
2022/09/04 11:00:48;;;;;;;7.30;3.25;;;;;;;22.64;69.79;101612.84;5028970;28;20052;-53
2022/09/04 11:03:32;;;;;;;6.63;3.22;;;;;;;22.64;69.70;101612.03;5031877;28;20049;-51
2022/09/04 11:06:23;;;;;;;7.70;3.40;;;;;;;22.62;69.50;101611.53;5032442;28;20130;-54
2022/09/04 11:09:03;;;;;;;7.03;3.25;;;;;;;22.61;68.75;101609.88;5030642;28;20045;-52
2022/09/04 11:11:51;;;;;;;6.78;3.20;;;;;;;22.59;68.91;101617.75;5015344;28;20123;-48
2022/09/04 11:14:44;;;;;;;6.85;3.28;;;;;;;22.59;69.11;101609.44;5032454;28;20041;-53
2022/09/04 11:17:45;;;;;;;6.75;3.38;;;;;;;22.62;69.05;101611.53;5032349;28;20046;-48
2022/09/04 11:20:32;;;;;;;5.28;3.08;;;;;;;22.65;69.08;101614.47;5032122;28;20052;-48
2022/09/04 11:23:17;;;;;;;6.03;2.95;;;;;;;22.73;68.62;101616.41;5031452;28;20099;-51
2022/09/04 11:26:06;;;;;;;6.88;2.78;;;;;;;22.78;67.84;101618.19;5032461;28;20041;-51
2022/09/04 11:28:51;;;;;;;5.60;2.60;;;;;;;22.80;67.47;101617.84;5032453;28;20050;-51
2022/09/04 11:31:47;;;;;;;6.22;2.72;;;;;;;22.84;67.06;101610.47;5032252;28;20530;-53
2022/09/04 11:34:47;;;;;;;4.13;2.55;;;;;;;22.95;66.38;101611.75;5032396;28;20095;-51
2022/09/04 11:37:42;;;;;;;6.10;2.50;;;;;;;23.05;65.71;101616.16;5032463;28;20057;-54
2022/09/04 11:40:45;;;;;;;4.63;2.40;;;;;;;23.10;64.86;101614.00;5030944;28;20049;-53
2022/09/04 11:43:36;;;;;;;6.40;2.78;;;;;;;23.17;64.24;101610.72;4991549;28;20045;-52
2022/09/04 11:46:28;;;;;;;4.05;2.50;;;;;;;23.23;63.34;101606.56;5032855;28;20041;-52
2022/09/04 11:49:21;;;;;;;3.30;2.30;;;;;;;23.25;63.25;101615.41;5032746;28;20079;-55
2022/09/04 11:52:11;;;;;;;4.25;2.53;;;;;;;23.26;63.25;101611.47;5023101;28;20045;-55
2022/09/04 11:55:10;;;;;;;2.85;2.45;;;;;;;23.28;62.20;101611.97;5014646;28;20056;-52
2022/09/04 11:58:02;;;;;;;3.03;2.42;;;;;;;23.33;60.89;101610.94;5025507;28;20048;-55
2022/09/04 12:00:41;;;;;;;4.78;2.50;;;;;;;23.38;61.01;101611.56;5014929;28;20052;-53
2022/09/04 12:03:44;;;;;;;4.15;2.40;;;;;;;23.47;58.20;101602.34;4998569;28;20061;-53
2022/09/04 12:06:50;;;;;;;2.72;2.30;;;;;;;23.55;57.44;101612.63;5018005;28;20052;-53
2022/09/04 12:09:30;;;;;;;;;;;;;;;23.57;55.31;101613.91;4849433;22;20057;-54
2022/09/04 12:12:36;;;;;;;3.63;2.33;;;;;;;23.65;53.53;101612.22;5047852;28;19928;-58
2022/09/04 12:15:29;;;;;;;3.63;2.50;;;;;;;23.75;52.03;101611.84;5053569;28;20052;-57
2022/09/04 12:18:25;;;;;;;4.72;2.60;;;;;;;23.79;52.40;101618.38;5060688;28;20041;-56
2022/09/04 12:21:13;;;;;;;4.13;2.40;;;;;;;23.80;51.99;101619.19;5050647;28;20041;-54
2022/09/04 12:24:02;;;;;;;7.18;2.80;;;;;;;23.81;50.89;101616.06;5045198;28;20144;-55
2022/09/04 12:26:57;;;;;;;5.60;2.38;;;;;;;23.83;51.36;101620.47;5074358;28;20055;-54
2022/09/04 12:29:29;;;;;;;5.13;2.67;;;;;;;23.90;51.46;101620.75;5057336;28;20045;-58
2022/09/04 12:32:44;;;;;;;4.57;2.55;;;;;;;23.97;51.08;101623.81;5018671;28;20041;-55
2022/09/04 12:35:25;;;;;;;;;;;;;;;23.97;51.38;101623.81;4975072;28;20031;-54
2022/09/04 12:38:23;;;;;;;4.70;2.40;;;;;;;23.99;50.94;101618.72;4970316;28;19922;-54
2022/09/04 12:41:05;;;;;;;4.85;2.38;;;;;;;24.01;50.91;101616.41;5024996;28;20056;-56
2022/09/04 12:43:44;;;;;;;5.90;3.05;;;;;;;24.02;50.99;101620.81;5018221;28;20094;-54
2022/09/04 12:46:25;;;;;;;4.65;2.60;;;;;;;24.02;51.76;101618.84;5051298;28;20045;-54
2022/09/04 12:49:05;;;;;;;4.78;2.50;;;;;;;24.04;51.93;101629.63;5051360;28;20056;-57
2022/09/04 12:52:02;;;;;;;8.25;2.95;;;;;;;24.09;51.78;101626.66;5052851;28;20445;-53